Time;durP1;ratioP1;P1;durP2;ratioP2;P2;SDS_P1;SDS_P2;PMS_P1;PMS_P2;Temp;Humidity;BMP_temperature;BMP_pressure;BME280_temperature;BME280_humidity;BME280_pressure;Samples;Min_cycle;Max_cycle;Signal;HPM_P1;HPM_P2
2021/03/30 00:00:56;;;;;;;33.30;22.13;;;;;;;7.51;60.21;100955.08;1646178;85;21213;-66
2021/03/30 00:03:23;;;;;;;33.73;20.95;;;;;;;7.50;60.21;100955.98;1706522;84;21588;-66
2021/03/30 00:05:50;;;;;;;34.67;21.07;;;;;;;7.48;60.30;100958.28;1725998;82;21163;-66
2021/03/30 00:08:18;;;;;;;32.28;21.70;;;;;;;7.46;60.40;100956.19;1715834;82;21200;-66
2021/03/30 00:10:48;;;;;;;37.13;22.22;;;;;;;7.46;60.40;100962.77;1700778;82;21170;-66
2021/03/30 00:13:14;;;;;;;30.90;21.35;;;;;;;7.43;60.44;100954.97;1715542;82;21181;-66
2021/03/30 00:15:42;;;;;;;32.28;21.40;;;;;;;7.41;60.44;100950.23;1714957;84;21154;-66
2021/03/30 00:18:10;;;;;;;33.33;20.62;;;;;;;7.39;60.52;100955.53;1708431;82;21170;-67
2021/03/30 00:20:37;;;;;;;35.65;22.98;;;;;;;7.38;60.53;100961.73;1744869;82;21364;-66
2021/03/30 00:23:05;;;;;;;36.90;21.35;;;;;;;7.37;60.51;100952.97;1725497;82;21164;-66
2021/03/30 00:25:33;;;;;;;32.00;20.05;;;;;;;7.44;60.38;100947.48;1719738;82;21139;-66
2021/03/30 00:28:01;;;;;;;34.00;21.07;;;;;;;7.59;60.15;100953.47;1707827;84;21191;-66
2021/03/30 00:30:28;;;;;;;35.68;21.68;;;;;;;7.59;60.03;100956.57;1710338;82;21190;-66
2021/03/30 00:32:56;;;;;;;35.88;21.55;;;;;;;7.54;60.07;100959.37;1707710;82;21185;-66
2021/03/30 00:35:23;;;;;;;36.33;21.10;;;;;;;7.50;60.20;100952.52;1687962;84;21767;-66
2021/03/30 00:37:50;;;;;;;38.42;21.73;;;;;;;7.50;60.16;100956.46;1699311;84;21140;-66
2021/03/30 00:40:18;;;;;;;39.67;21.60;;;;;;;7.48;60.03;100956.97;1681330;85;21623;-66
2021/03/30 00:42:45;;;;;;;35.30;22.07;;;;;;;7.45;59.98;100953.98;1691706;84;21167;-66
2021/03/30 00:45:14;;;;;;;36.55;20.20;;;;;;;7.43;60.11;100956.28;1710080;84;21314;-66
2021/03/30 00:47:46;;;;;;;27.90;17.92;;;;;;;7.43;59.91;100956.28;1688264;84;21191;-66
2021/03/30 00:50:20;;;;;;;32.85;19.73;;;;;;;7.41;59.92;100958.13;1709618;84;21318;-66
2021/03/30 00:52:48;;;;;;;28.65;18.98;;;;;;;7.38;59.83;100953.38;1707093;84;21310;-66
2021/03/30 00:55:18;;;;;;;28.70;18.35;;;;;;;7.34;59.81;100954.41;1679183;85;21151;-66
2021/03/30 00:57:47;;;;;;;33.60;20.17;;;;;;;7.31;59.57;100949.25;1682884;84;21273;-66
2021/03/30 01:00:18;;;;;;;33.05;20.32;;;;;;;7.26;59.57;100952.51;1678442;83;21155;-67
2021/03/30 01:02:45;;;;;;;34.85;21.55;;;;;;;7.24;59.59;100958.30;1694613;83;21276;-66
2021/03/30 01:05:15;;;;;;;34.38;21.27;;;;;;;7.23;59.52;100962.31;1702957;83;21607;-66
2021/03/30 01:07:57;;;;;;;34.38;21.10;;;;;;;7.20;59.45;100960.19;1699071;83;21107;-66
2021/03/30 01:10:43;;;;;;;34.67;20.00;;;;;;;7.17;59.54;100956.80;1707569;83;21187;-67
2021/03/30 01:13:22;;;;;;;27.70;18.90;;;;;;;7.15;59.36;100962.59;1695889;83;21147;-66
2021/03/30 01:16:05;;;;;;;32.40;19.42;;;;;;;7.07;59.39;100947.53;1715539;83;21155;-67
2021/03/30 01:18:46;;;;;;;33.18;20.17;;;;;;;7.09;59.59;100960.19;1707038;83;21257;-67
2021/03/30 01:22:03;;;;;;;30.75;19.60;;;;;;;7.06;59.61;100958.53;1716074;83;21305;-66
2021/03/30 01:24:37;;;;;;;28.30;18.92;;;;;;;7.05;59.67;100962.06;1692079;83;21154;-67
2021/03/30 01:27:33;;;;;;;30.17;19.98;;;;;;;7.03;59.73;100959.50;1710963;83;21143;-66
2021/03/30 01:43:08;;;;;;;24.80;17.67;;;;;;;8.52;56.67;100962.96;1819186;79;23083;-67
2021/03/30 01:45:37;;;;;;;32.25;18.12;;;;;;;8.63;56.24;100967.31;1792674;80;21174;-67
2021/03/30 01:48:06;;;;;;;28.10;18.45;;;;;;;8.51;56.36;100966.52;1748257;81;21586;-67
2021/03/30 01:50:35;;;;;;;29.55;17.75;;;;;;;8.37;56.40;100966.58;1771207;80;21190;-67
2021/03/30 01:53:04;;;;;;;28.25;17.85;;;;;;;8.20;56.57;100972.56;1784628;80;21591;-67
2021/03/30 01:55:33;;;;;;;24.47;16.50;;;;;;;8.04;56.71;100969.70;1783942;80;21186;-67
2021/03/30 01:58:00;;;;;;;25.60;17.12;;;;;;;7.88;56.95;100972.55;1784017;80;21583;-67
2021/03/30 02:00:31;;;;;;;24.25;16.35;;;;;;;7.73;56.98;100970.52;1794102;80;21150;-67
2021/03/30 02:02:58;;;;;;;27.42;16.75;;;;;;;7.62;56.91;100978.38;1760963;81;21190;-67
2021/03/30 02:05:26;;;;;;;28.23;16.80;;;;;;;7.55;57.12;100975.56;1792915;80;21146;-66
2021/03/30 02:07:56;;;;;;;25.02;16.50;;;;;;;7.50;57.17;100981.47;1761378;81;21320;-66
2021/03/30 02:13:31;;;;;;;27.22;17.07;;;;;;;7.39;57.60;100983.17;1777716;79;23459;-66
2021/03/30 02:15:59;;;;;;;26.10;16.52;;;;;;;7.29;57.67;100984.43;1752869;82;21151;-66
2021/03/30 02:18:31;;;;;;;25.75;17.30;;;;;;;7.21;58.41;100982.95;1746705;82;21124;-66
2021/03/30 02:21:02;;;;;;;26.42;16.27;;;;;;;7.15;58.35;100981.02;1749430;82;21115;-66
2021/03/30 02:23:33;;;;;;;22.98;14.55;;;;;;;7.08;58.46;100991.34;1749515;82;21171;-66
2021/03/30 02:26:01;;;;;;;23.45;16.27;;;;;;;7.00;58.65;100980.63;1753294;82;21278;-66
2021/03/30 02:28:38;;;;;;;24.60;16.73;;;;;;;6.95;58.92;100977.78;1753073;82;21151;-66
2021/03/30 02:31:04;;;;;;;30.77;17.42;;;;;;;6.92;59.09;100985.32;1745810;82;21301;-66
2021/03/30 02:33:31;;;;;;;26.85;18.00;;;;;;;6.87;59.30;100971.01;1696881;83;21196;-67
2021/03/30 02:35:59;;;;;;;24.20;17.60;;;;;;;6.85;59.28;100980.73;1694500;85;21186;-66
2021/03/30 02:38:26;;;;;;;30.77;18.87;;;;;;;6.86;59.15;100972.38;1694303;85;21163;-66
2021/03/30 02:40:53;;;;;;;24.75;16.57;;;;;;;6.85;59.11;100982.49;1698728;83;22203;-66
2021/03/30 02:43:20;;;;;;;31.62;18.87;;;;;;;6.84;59.07;100982.08;1709084;83;21182;-66
2021/03/30 02:45:50;;;;;;;26.95;17.00;;;;;;;6.84;58.98;100974.20;1693310;85;21175;-66
2021/03/30 02:48:18;;;;;;;22.93;15.50;;;;;;;6.84;58.82;100973.76;1693212;85;21159;-65
2021/03/30 02:50:49;;;;;;;19.55;14.00;;;;;;;6.81;58.92;100973.00;1695739;83;21146;-66
2021/03/30 02:53:16;;;;;;;24.85;16.82;;;;;;;6.79;59.05;100973.50;1693928;83;21281;-66
2021/03/30 02:55:44;;;;;;;26.90;16.90;;;;;;;6.72;59.17;100981.59;1693002;85;21622;-66
2021/03/30 02:58:12;;;;;;;29.48;17.57;;;;;;;6.65;59.26;100981.42;1704066;83;21293;-66
2021/03/30 03:00:40;;;;;;;24.15;15.72;;;;;;;6.62;59.39;100984.61;1723024;83;21146;-66
2021/03/30 03:03:11;;;;;;;27.13;17.98;;;;;;;6.59;59.40;100988.66;1719393;83;21151;-66
2021/03/30 03:05:38;;;;;;;23.90;15.83;;;;;;;6.56;59.51;100984.38;1723410;83;21190;-66
2021/03/30 03:08:07;;;;;;;29.98;17.62;;;;;;;6.57;59.54;100984.75;1723120;83;21214;-68
2021/03/30 03:10:36;;;;;;;27.90;16.45;;;;;;;6.55;59.53;100981.34;1700544;83;21186;-65
2021/03/30 03:13:06;;;;;;;25.97;16.60;;;;;;;6.53;59.67;100978.77;1694449;83;21381;-66
2021/03/30 03:15:34;;;;;;;29.20;18.75;;;;;;;6.53;59.66;100993.66;1688254;85;21645;-65
2021/03/30 03:18:02;;;;;;;26.75;17.77;;;;;;;6.52;59.74;100978.36;1688221;84;21183;-67
2021/03/30 03:20:31;;;;;;;26.40;16.82;;;;;;;6.49;59.66;100985.48;1693941;83;21115;-67
2021/03/30 03:23:00;;;;;;;27.30;17.07;;;;;;;6.47;59.74;100986.85;1716421;83;21297;-67
2021/03/30 03:25:27;;;;;;;26.20;16.85;;;;;;;6.47;59.73;100982.03;1705799;83;21202;-66
2021/03/30 03:27:55;;;;;;;27.62;14.83;;;;;;;6.44;59.80;100980.83;1689167;84;21186;-66
2021/03/30 03:30:27;;;;;;;26.07;16.20;;;;;;;6.45;59.84;100986.50;1690792;83;21634;-66
2021/03/30 03:33:11;;;;;;;25.68;16.32;;;;;;;6.41;59.92;100988.36;1699531;82;21159;-66
2021/03/30 03:35:42;;;;;;;24.80;15.85;;;;;;;6.40;59.96;100996.69;1688880;85;21285;-65
2021/03/30 03:38:12;;;;;;;22.90;15.05;;;;;;;6.38;59.92;100990.64;1689049;85;21209;-65
2021/03/30 03:40:38;;;;;;;21.05;14.78;;;;;;;6.38;59.95;100998.95;1692251;83;21179;-65
2021/03/30 03:43:05;;;;;;;27.52;16.60;;;;;;;6.39;59.92;101002.87;1713554;83;21159;-66
2021/03/30 03:45:33;;;;;;;26.97;16.02;;;;;;;6.39;59.90;100997.62;1713684;83;21533;-66
2021/03/30 03:48:00;;;;;;;25.37;15.55;;;;;;;6.42;59.75;100994.47;1716062;83;21139;-66
2021/03/30 03:50:27;;;;;;;28.42;17.30;;;;;;;6.42;59.74;100999.72;1717146;83;21183;-66
2021/03/30 03:52:54;;;;;;;28.42;16.67;;;;;;;6.42;59.69;101001.03;1714664;83;21151;-66
2021/03/30 03:55:22;;;;;;;28.17;17.55;;;;;;;6.41;59.79;101004.13;1713940;83;21091;-66
2021/03/30 03:57:53;;;;;;;26.05;16.93;;;;;;;6.40;59.75;101012.45;1689015;85;21236;-66
2021/03/30 04:00:22;;;;;;;27.30;16.97;;;;;;;6.40;59.80;101003.25;1689064;84;21127;-67
2021/03/30 04:03:02;;;;;;;27.75;16.27;;;;;;;6.39;59.67;101002.87;1698024;83;21143;-67
2021/03/30 04:05:37;;;;;;;27.55;16.93;;;;;;;6.35;59.69;101003.86;1709609;83;21114;-67
2021/03/30 04:08:08;;;;;;;29.85;17.77;;;;;;;6.35;59.77;101015.68;1716934;83;21163;-67
2021/03/30 04:10:36;;;;;;;25.10;15.18;;;;;;;6.33;59.82;101007.45;1689547;83;21230;-66
2021/03/30 04:13:04;;;;;;;27.40;14.33;;;;;;;6.35;59.79;101016.15;1695727;83;21226;-66
2021/03/30 04:15:31;;;;;;;26.02;15.95;;;;;;;6.33;59.76;101016.20;1722432;83;21135;-66
2021/03/30 04:17:59;;;;;;;22.02;14.45;;;;;;;6.32;59.75;101009.23;1723329;83;21159;-66
2021/03/30 04:20:26;;;;;;;22.40;14.13;;;;;;;6.31;59.52;101019.33;1713019;83;21745;-66
2021/03/30 04:22:58;;;;;;;29.07;16.48;;;;;;;6.28;59.40;101015.50;1707689;83;21158;-67
2021/03/30 04:25:27;;;;;;;25.27;14.45;;;;;;;6.24;59.56;101013.88;1722756;83;21127;-66
2021/03/30 04:27:55;;;;;;;23.18;15.43;;;;;;;6.23;59.58;101013.47;1716707;83;21158;-67
2021/03/30 04:30:24;;;;;;;20.10;12.55;;;;;;;6.24;59.58;101013.88;1715762;83;21161;-67
2021/03/30 04:32:51;;;;;;;22.48;15.00;;;;;;;6.26;59.54;101015.98;1722243;82;21163;-67
2021/03/30 04:35:19;;;;;;;26.80;16.32;;;;;;;6.28;59.36;101022.50;1705426;83;21135;-67
2021/03/30 04:37:46;;;;;;;24.05;14.87;;;;;;;6.29;59.31;101018.97;1707979;83;21307;-67
2021/03/30 04:40:16;;;;;;;25.48;15.80;;;;;;;6.28;59.18;101020.75;1721704;83;21134;-66
2021/03/30 04:42:43;;;;;;;30.30;15.00;;;;;;;6.33;59.00;101028.03;1707600;83;21179;-67
2021/03/30 04:45:12;;;;;;;25.08;15.28;;;;;;;6.36;58.85;101034.95;1713735;83;21131;-67
2021/03/30 04:47:39;;;;;;;29.48;16.40;;;;;;;6.37;59.05;101036.21;1719385;83;21155;-67
2021/03/30 04:50:28;;;;;;;29.15;13.70;;;;;;;6.39;59.01;101033.53;1720370;83;21135;-67
2021/03/30 04:52:56;;;;;;;24.77;13.98;;;;;;;6.42;58.73;101040.45;1724240;83;21179;-67
2021/03/30 04:55:23;;;;;;;33.80;20.32;;;;;;;6.40;58.63;101038.73;1727175;83;21156;-67
2021/03/30 04:57:51;;;;;;;34.15;20.77;;;;;;;6.36;58.51;101031.86;1686417;84;21137;-67
2021/03/30 05:00:20;;;;;;;29.32;16.77;;;;;;;6.39;58.39;101038.78;1699533;84;21149;-67
2021/03/30 05:02:47;;;;;;;30.80;15.53;;;;;;;6.40;58.39;101036.10;1662571;86;21220;-67
2021/03/30 05:05:16;;;;;;;25.25;14.63;;;;;;;6.40;58.33;101041.82;1701504;84;21283;-67
2021/03/30 05:07:44;;;;;;;24.02;15.10;;;;;;;6.42;58.22;101035.20;1704755;84;21201;-67
2021/03/30 05:10:12;;;;;;;26.15;14.13;;;;;;;6.44;58.33;101036.02;1683004;84;21202;-68
2021/03/30 05:12:40;;;;;;;27.60;15.53;;;;;;;6.47;58.33;101029.34;1693615;84;21196;-68
2021/03/30 05:15:08;;;;;;;23.83;13.90;;;;;;;6.48;57.79;101043.73;1697694;84;21667;-68
2021/03/30 05:17:37;;;;;;;29.30;14.38;;;;;;;6.45;57.75;101041.22;1703031;82;21180;-68
2021/03/30 05:20:28;;;;;;;23.65;14.58;;;;;;;6.40;57.74;101045.30;1657342;86;21579;-68
2021/03/30 05:22:56;;;;;;;38.35;21.45;;;;;;;6.43;57.74;101044.80;1706587;83;21582;-68
2021/03/30 05:25:26;;;;;;;26.57;16.42;;;;;;;6.47;57.68;101049.05;1679505;84;21200;-68
2021/03/30 05:27:53;;;;;;;22.48;12.10;;;;;;;6.48;57.63;101051.62;1691153;84;21160;-68
2021/03/30 05:30:21;;;;;;;21.75;12.10;;;;;;;6.51;57.16;101046.72;1681080;84;21156;-69
2021/03/30 05:32:49;;;;;;;25.10;14.75;;;;;;;6.46;57.19;101047.32;1677584;84;21162;-69
2021/03/30 05:35:16;;;;;;;22.02;14.35;;;;;;;6.47;57.21;101054.30;1672367;85;21131;-68
2021/03/30 05:37:43;;;;;;;21.25;13.48;;;;;;;6.52;57.30;101050.63;1642810;87;21668;-69
2021/03/30 05:40:16;;;;;;;23.22;13.13;;;;;;;6.55;57.12;101048.36;1642730;87;21181;-69
2021/03/30 05:42:43;;;;;;;23.00;13.03;;;;;;;6.55;56.95;101050.98;1642947;87;21198;-69
2021/03/30 05:45:13;;;;;;;24.18;14.53;;;;;;;6.54;56.96;101055.83;1642740;87;21206;-69
2021/03/30 05:47:40;;;;;;;24.80;15.03;;;;;;;6.55;56.91;101051.83;1659466;86;21190;-69
2021/03/30 05:50:13;;;;;;;24.85;14.20;;;;;;;6.57;56.61;101050.46;1692012;84;21182;-66
2021/03/30 05:52:49;;;;;;;22.73;13.50;;;;;;;6.60;56.61;101053.01;1697911;84;21342;-69
2021/03/30 05:55:27;;;;;;;21.37;13.22;;;;;;;6.65;56.56;101055.03;1698065;84;21570;-68
2021/03/30 05:57:57;;;;;;;24.25;13.98;;;;;;;6.66;56.44;101054.13;1697828;84;21321;-67
2021/03/30 06:00:41;;;;;;;22.15;12.98;;;;;;;6.69;56.59;101052.70;1690027;84;21178;-69
2021/03/30 06:03:15;;;;;;;18.40;12.00;;;;;;;6.75;56.60;101064.77;1696199;84;21155;-68
2021/03/30 06:05:42;;;;;;;;;;;;;;;6.79;56.11;101057.64;1700313;84;21131;-68
2021/03/30 06:08:10;;;;;;;20.43;13.15;;;;;;;6.76;56.33;101053.34;1688599;84;20168;-68
2021/03/30 06:10:37;;;;;;;26.85;14.45;;;;;;;6.77;56.30;101058.16;1669823;86;21701;-68
2021/03/30 06:13:06;;;;;;;21.48;13.03;;;;;;;6.79;56.20;101055.01;1669621;86;21174;-68
2021/03/30 06:15:35;;;;;;;22.40;14.38;;;;;;;6.83;56.44;101053.98;1669891;86;21225;-68
2021/03/30 06:18:18;;;;;;;17.82;12.98;;;;;;;6.93;55.98;101051.91;1669497;86;21243;-68
2021/03/30 06:20:46;;;;;;;20.95;12.88;;;;;;;7.02;55.85;101059.48;1660202;86;21225;-68
2021/03/30 06:23:13;;;;;;;22.98;14.05;;;;;;;7.12;55.70;101057.40;1624291;88;21183;-69
2021/03/30 06:25:44;;;;;;;23.40;12.63;;;;;;;7.18;54.93;101051.92;1614364;87;21175;-68
2021/03/30 06:28:25;;;;;;;22.27;13.03;;;;;;;7.26;54.66;101052.97;1654664;87;21159;-68
2021/03/30 06:31:03;;;;;;;19.70;12.25;;;;;;;7.34;54.35;101066.26;1648423;87;21160;-68
2021/03/30 06:33:34;;;;;;;20.00;11.95;;;;;;;7.38;53.62;101052.07;1640677;87;21657;-68
2021/03/30 06:36:20;;;;;;;16.77;11.28;;;;;;;7.39;52.66;101051.59;1636303;86;21868;-68
2021/03/30 06:39:03;;;;;;;21.55;12.65;;;;;;;7.43;52.82;101052.35;1613104;89;21851;-68
2021/03/30 06:42:00;;;;;;;23.83;12.20;;;;;;;7.49;52.74;101057.39;1613006;89;21173;-68
2021/03/30 06:44:26;;;;;;;22.13;12.05;;;;;;;7.59;52.20;101062.72;1619587;87;21165;-68
2021/03/30 06:47:14;;;;;;;21.57;13.10;;;;;;;7.59;51.28;101065.36;1561085;87;21608;-66
2021/03/30 06:50:05;;;;;;;24.12;12.25;;;;;;;7.66;51.94;101062.91;1628998;87;21225;-68
2021/03/30 06:52:35;;;;;;;28.52;13.85;;;;;;;7.84;51.29;101062.67;1630046;86;21589;-68
2021/03/30 06:55:07;;;;;;;20.27;11.80;;;;;;;8.03;50.69;101058.88;1626958;87;21177;-68
2021/03/30 06:57:45;;;;;;;18.12;10.53;;;;;;;8.15;49.80;101065.91;1619472;87;21187;-70
2021/03/30 07:00:29;;;;;;;17.12;11.08;;;;;;;8.22;49.01;101075.74;1613446;89;21204;-67
2021/03/30 07:03:08;;;;;;;19.55;11.95;;;;;;;8.30;49.31;101072.33;1625232;87;21609;-67
2021/03/30 07:05:41;;;;;;;18.82;12.55;;;;;;;8.36;48.77;101079.55;1622741;87;21624;-67
2021/03/30 07:08:12;;;;;;;17.27;11.43;;;;;;;8.41;49.05;101086.42;1613509;88;21160;-68
2021/03/30 07:10:48;;;;;;;20.82;12.73;;;;;;;8.49;48.77;101077.76;1613363;89;21144;-67
2021/03/30 07:13:19;;;;;;;21.10;12.55;;;;;;;8.61;48.59;101090.45;1613572;89;21185;-66
2021/03/30 07:16:11;;;;;;;25.75;15.10;;;;;;;8.74;47.83;101089.96;1624423;87;21153;-68
2021/03/30 07:18:46;;;;;;;20.85;12.68;;;;;;;8.83;47.71;101093.53;1613412;88;21696;-68
2021/03/30 07:21:25;;;;;;;17.65;11.22;;;;;;;8.90;48.19;101088.84;1635994;86;21640;-68
2021/03/30 07:23:58;;;;;;;26.10;13.15;;;;;;;8.97;47.57;101085.89;1642308;87;21193;-68
2021/03/30 07:26:37;;;;;;;20.72;12.37;;;;;;;9.10;47.84;101086.69;1642444;86;21352;-68
2021/03/30 07:29:08;;;;;;;20.12;11.90;;;;;;;9.21;47.70;101088.41;1649788;86;21177;-67
2021/03/30 07:32:05;;;;;;;20.60;12.50;;;;;;;9.31;47.51;101089.73;1641368;86;21360;-68
2021/03/30 07:35:00;;;;;;;45.05;13.93;;;;;;;9.49;47.31;101085.41;1608327;86;21170;-68
2021/03/30 07:37:39;;;;;;;21.90;12.53;;;;;;;9.69;47.28;101088.94;1640209;87;21820;-69
2021/03/30 07:40:10;;;;;;;17.62;10.85;;;;;;;9.89;47.14;101091.16;1624462;87;21340;-68
2021/03/30 07:42:40;;;;;;;19.70;12.07;;;;;;;10.03;45.53;101091.36;1639901;86;21242;-68
2021/03/30 07:45:11;;;;;;;22.75;12.85;;;;;;;10.13;46.32;101095.77;1682121;83;21187;-67
2021/03/30 07:47:39;;;;;;;18.37;12.18;;;;;;;10.31;45.95;101093.55;1665907;86;21165;-68
2021/03/30 07:50:09;;;;;;;30.20;11.90;;;;;;;10.49;45.06;101093.64;1720498;83;21489;-68
2021/03/30 07:52:45;;;;;;;14.85;9.70;;;;;;;10.60;44.19;101100.59;1723621;83;21190;-68
2021/03/30 07:55:27;;;;;;;19.20;11.50;;;;;;;10.68;43.35;101092.72;1706239;83;21178;-68
2021/03/30 07:58:13;;;;;;;13.17;9.17;;;;;;;10.73;43.28;101094.67;1689959;83;21305;-69
2021/03/30 08:00:50;;;;;;;12.85;8.80;;;;;;;10.78;42.57;101092.20;1665743;85;21176;-68
2021/03/30 08:03:27;;;;;;;16.07;8.45;;;;;;;10.87;42.00;101090.89;1693802;83;21567;-68
2021/03/30 08:06:18;;;;;;;15.40;8.50;;;;;;;11.02;41.95;101094.53;1683158;85;21354;-68
2021/03/30 08:08:57;;;;;;;18.60;8.55;;;;;;;11.15;40.35;101095.64;1666017;86;21178;-68
2021/03/30 08:11:57;;;;;;;14.73;9.13;;;;;;;11.24;40.70;101087.70;1671947;86;21139;-68
2021/03/30 08:14:36;;;;;;;24.95;12.07;;;;;;;11.33;39.63;101097.41;1661754;86;21316;-67
2021/03/30 08:17:14;;;;;;;26.15;8.90;;;;;;;11.37;40.77;101089.23;1710332;83;21268;-67
2021/03/30 08:20:02;;;;;;;20.82;11.30;;;;;;;11.51;40.16;101079.69;1723076;83;21157;-67
2021/03/30 08:22:41;;;;;;;21.33;8.93;;;;;;;11.67;39.68;101082.39;1700190;83;21229;-67
2021/03/30 08:25:24;;;;;;;13.40;8.33;;;;;;;11.78;38.73;101082.67;1688328;85;21112;-66
2021/03/30 08:27:51;;;;;;;19.87;10.55;;;;;;;11.85;39.13;101077.41;1642198;87;21345;-66
2021/03/30 08:30:30;;;;;;;13.95;8.40;;;;;;;11.91;37.55;101082.38;1642318;87;21227;-66
2021/03/30 08:32:59;;;;;;;18.02;9.48;;;;;;;12.00;37.63;101081.54;1681965;83;21338;-66
2021/03/30 08:35:34;;;;;;;13.38;7.87;;;;;;;12.09;37.76;101077.05;1664673;86;21201;-66
2021/03/30 08:38:03;;;;;;;14.78;7.75;;;;;;;12.16;37.39;101077.09;1643793;86;21173;-66
2021/03/30 08:40:41;;;;;;;13.50;8.23;;;;;;;12.19;37.80;101075.59;1641043;86;21308;-66
2021/03/30 08:43:19;;;;;;;11.38;7.22;;;;;;;12.24;38.10;101080.16;1642168;87;21339;-67
2021/03/30 08:46:11;;;;;;;12.93;8.05;;;;;;;12.31;37.15;101077.17;1659411;86;21132;-68
2021/03/30 08:48:50;;;;;;;12.03;8.13;;;;;;;12.28;36.27;101075.06;1661466;86;21170;-67
2021/03/30 08:51:20;;;;;;;22.52;8.38;;;;;;;12.28;37.02;101085.67;1689163;85;21671;-68
2021/03/30 08:53:48;;;;;;;10.60;6.12;;;;;;;12.34;37.44;101069.02;1659905;86;21671;-68
2021/03/30 08:56:26;;;;;;;11.73;7.20;;;;;;;12.41;36.16;101083.66;1657464;86;21740;-67
2021/03/30 08:58:57;;;;;;;11.30;6.95;;;;;;;12.40;36.39;101079.30;1668035;86;21233;-67
2021/03/30 09:01:25;;;;;;;11.57;7.42;;;;;;;12.42;36.74;101076.09;1680309;85;21620;-68
2021/03/30 09:03:54;;;;;;;11.48;7.45;;;;;;;12.51;36.52;101083.52;1666783;86;21196;-67
2021/03/30 09:06:35;;;;;;;10.60;7.08;;;;;;;12.59;35.81;101085.25;1652764;86;21315;-68
2021/03/30 09:09:07;;;;;;;59.73;9.48;;;;;;;12.68;35.46;101084.35;1643932;86;21199;-68
2021/03/30 09:11:36;;;;;;;10.13;6.50;;;;;;;12.71;36.11;101083.70;1681257;85;21179;-68
2021/03/30 09:14:07;;;;;;;9.35;5.92;;;;;;;12.82;35.56;101080.41;1660482;86;21198;-66
2021/03/30 09:16:36;;;;;;;12.85;6.70;;;;;;;12.89;34.94;101081.77;1655232;86;21156;-66
2021/03/30 09:19:21;;;;;;;9.15;6.22;;;;;;;12.88;35.62;101071.25;1654006;84;21566;-68
2021/03/30 09:22:14;;;;;;;9.40;6.33;;;;;;;12.99;34.69;101078.56;1672046;85;21378;-66
2021/03/30 09:24:51;;;;;;;11.22;6.35;;;;;;;13.08;35.36;101070.05;1661554;86;21610;-66
2021/03/30 09:27:12;;;;;;;12.50;6.70;;;;;;;13.24;34.85;101069.50;1649905;86;21192;-65
2021/03/30 09:29:39;;;;;;;32.88;7.33;;;;;;;13.26;35.01;101066.75;1669248;86;21244;-68
2021/03/30 09:32:09;;;;;;;13.68;7.28;;;;;;;13.33;34.60;101065.92;1668566;84;21660;-68
2021/03/30 09:34:40;;;;;;;10.10;6.33;;;;;;;13.35;34.75;101062.23;1645889;86;21233;-68
2021/03/30 09:37:07;;;;;;;13.18;6.40;;;;;;;13.40;34.15;101062.83;1654621;86;21329;-65
2021/03/30 09:39:36;;;;;;;17.07;8.08;;;;;;;13.44;34.89;101059.03;1657434;86;21162;-66
2021/03/30 09:42:05;;;;;;;10.72;6.80;;;;;;;13.52;34.93;101062.54;1657516;85;21696;-66
2021/03/30 09:44:42;;;;;;;13.05;7.03;;;;;;;13.59;34.92;101053.25;1657575;86;21152;-66
2021/03/30 09:47:13;;;;;;;8.78;6.30;;;;;;;13.67;34.86;101049.23;1696835;83;21116;-66
2021/03/30 09:49:43;;;;;;;31.42;8.35;;;;;;;13.76;34.01;101050.02;1681949;84;21222;-66
2021/03/30 09:52:13;;;;;;;10.18;7.08;;;;;;;13.81;34.42;101037.28;1698075;84;21179;-66
2021/03/30 09:54:43;;;;;;;11.97;6.17;;;;;;;13.91;34.49;101045.05;1698252;83;21172;-66
2021/03/30 09:57:16;;;;;;;8.98;6.80;;;;;;;14.05;33.53;101040.63;1683888;83;21302;-66
2021/03/30 09:59:47;;;;;;;15.38;7.80;;;;;;;14.05;33.53;101040.63;1667847;85;21180;-66
2021/03/30 10:02:19;;;;;;;10.80;7.33;;;;;;;14.01;34.52;101037.80;1667038;85;21197;-66
2021/03/30 10:05:02;;;;;;;21.90;6.93;;;;;;;14.03;34.42;101041.23;1678541;83;21146;-66
2021/03/30 10:07:35;;;;;;;11.30;7.70;;;;;;;14.02;34.02;101038.19;1722830;83;21913;-66
2021/03/30 10:10:12;;;;;;;13.88;7.28;;;;;;;13.99;34.74;101031.72;1695619;83;21152;-66
2021/03/30 10:12:55;;;;;;;12.63;7.80;;;;;;;13.99;34.74;101031.72;1668233;85;21326;-66
2021/03/30 10:15:40;;;;;;;11.28;7.17;;;;;;;14.06;35.02;101037.87;1723524;83;21276;-66
2021/03/30 10:18:09;;;;;;;10.90;6.30;;;;;;;14.08;34.52;101027.16;1723982;83;21589;-66
2021/03/30 10:20:52;;;;;;;13.88;8.00;;;;;;;14.01;33.97;101025.83;1672156;85;21155;-66
2021/03/30 10:23:24;;;;;;;12.23;7.80;;;;;;;13.82;33.96;101021.68;1645831;85;21214;-66
2021/03/30 10:25:54;;;;;;;14.25;7.80;;;;;;;13.65;34.45;101017.93;1633138;87;21178;-67
2021/03/30 10:28:28;;;;;;;11.50;7.42;;;;;;;13.58;34.39;101023.63;1638234;87;21220;-67
2021/03/30 10:31:03;;;;;;;10.35;6.90;;;;;;;13.58;34.39;101023.63;1648073;87;21202;-66
2021/03/30 10:33:39;;;;;;;9.55;6.62;;;;;;;13.62;34.44;101015.45;1608866;88;21182;-67
2021/03/30 10:36:09;;;;;;;10.50;6.90;;;;;;;13.64;33.97;101013.55;1624068;88;21340;-67
2021/03/30 10:38:37;;;;;;;10.72;6.90;;;;;;;13.63;34.58;101009.19;1634235;88;21300;-68
2021/03/30 10:41:12;;;;;;;13.48;7.33;;;;;;;13.63;34.58;101009.19;1634270;88;21336;-67
2021/03/30 10:43:40;;;;;;;13.40;8.55;;;;;;;13.68;34.25;101010.63;1634124;87;21562;-66
2021/03/30 10:46:20;;;;;;;13.88;8.23;;;;;;;13.64;34.25;101004.25;1634334;86;21377;-67
2021/03/30 10:49:04;;;;;;;13.40;7.58;;;;;;;13.69;34.15;100991.03;1634546;88;21241;-67
2021/03/30 10:51:34;;;;;;;24.07;15.63;;;;;;;13.69;34.15;100991.03;1633101;88;21211;-68
2021/03/30 10:54:03;;;;;;;14.03;8.70;;;;;;;13.75;34.50;100987.98;1634186;88;21292;-68
2021/03/30 10:56:31;;;;;;;15.03;9.85;;;;;;;13.75;34.50;100987.98;1633943;88;21304;-67
2021/03/30 10:58:59;;;;;;;13.00;9.00;;;;;;;13.74;34.02;100986.27;1633902;88;21352;-67
2021/03/30 11:01:26;;;;;;;15.48;8.98;;;;;;;13.74;34.02;100986.27;1634436;88;21218;-67
2021/03/30 11:03:53;;;;;;;12.07;7.90;;;;;;;13.76;34.83;100986.20;1634517;88;21586;-67
2021/03/30 11:06:20;;;;;;;13.58;7.50;;;;;;;13.82;34.32;100987.11;1634323;88;21340;-67
2021/03/30 11:08:49;;;;;;;18.45;8.48;;;;;;;13.84;34.83;100987.88;1634300;86;21163;-67
2021/03/30 11:11:17;;;;;;;11.10;7.42;;;;;;;13.92;34.11;100985.56;1634448;88;21341;-67
2021/03/30 11:13:44;;;;;;;12.80;8.20;;;;;;;13.96;33.80;100981.39;1634683;86;21206;-67
2021/03/30 11:16:12;;;;;;;14.53;8.73;;;;;;;13.90;34.08;100982.17;1633265;88;21207;-66
2021/03/30 11:18:41;;;;;;;12.53;8.18;;;;;;;13.83;34.68;100982.18;1633316;88;21170;-67
2021/03/30 11:21:09;;;;;;;13.53;8.70;;;;;;;13.83;34.68;100982.18;1634304;87;21351;-67
2021/03/30 11:23:38;;;;;;;16.77;8.38;;;;;;;13.86;34.99;100974.48;1632693;85;21328;-67
2021/03/30 11:26:06;;;;;;;83.15;12.95;;;;;;;13.93;34.95;100975.31;1631782;87;21710;-67
2021/03/30 11:31:22;;;;;;;17.37;11.30;;;;;;;14.05;34.59;100983.45;1776934;79;28251;-67
2021/03/30 11:33:47;;;;;;;14.47;9.20;;;;;;;14.21;34.62;100978.83;1749158;81;21179;-67
2021/03/30 11:36:16;;;;;;;17.57;9.15;;;;;;;14.41;34.25;100964.66;1739565;81;21228;-67
2021/03/30 11:38:43;;;;;;;12.53;7.65;;;;;;;14.42;34.30;100968.58;1731068;83;21212;-67
2021/03/30 11:41:10;;;;;;;13.08;7.97;;;;;;;14.49;34.43;100968.14;1731078;83;21664;-67
2021/03/30 11:43:37;;;;;;;13.18;7.75;;;;;;;14.55;34.19;100965.94;1732808;81;21495;-67
2021/03/30 11:46:06;;;;;;;18.60;8.98;;;;;;;14.57;34.23;100952.52;1698638;84;21601;-67
2021/03/30 11:48:35;;;;;;;15.72;7.25;;;;;;;14.59;33.95;100955.45;1685538;85;21152;-67
2021/03/30 11:51:03;;;;;;;18.98;8.33;;;;;;;14.60;34.25;100954.95;1698671;84;21158;-68
2021/03/30 11:53:30;;;;;;;12.18;8.00;;;;;;;14.63;34.25;100957.89;1685934;85;21204;-67
2021/03/30 11:55:59;;;;;;;13.25;8.23;;;;;;;14.64;33.44;100948.95;1698706;84;21158;-69
2021/03/30 11:58:27;;;;;;;12.80;8.13;;;;;;;14.55;33.58;100947.30;1685430;85;21175;-68